sensor_id;sensor_type;location;lat;lon;timestamp;temperature;humidity
6174;DHT22;3120;48.796;9.796;2023-03-03T00:01:52;1.20;99.90
6174;DHT22;3120;48.796;9.796;2023-03-03T00:04:18;1.20;99.90
6174;DHT22;3120;48.796;9.796;2023-03-03T00:06:44;1.10;99.90
6174;DHT22;3120;48.796;9.796;2023-03-03T00:09:10;1.10;99.90
6174;DHT22;3120;48.796;9.796;2023-03-03T00:11:35;1.00;99.90
6174;DHT22;3120;48.796;9.796;2023-03-03T00:14:01;1.00;99.90
6174;DHT22;3120;48.796;9.796;2023-03-03T00:16:37;1.00;99.90
6174;DHT22;3120;48.796;9.796;2023-03-03T00:19:17;0.90;99.90
6174;DHT22;3120;48.796;9.796;2023-03-03T00:21:50;0.90;99.90
6174;DHT22;3120;48.796;9.796;2023-03-03T00:24:24;0.80;99.90
6174;DHT22;3120;48.796;9.796;2023-03-03T00:27:00;0.80;99.90
6174;DHT22;3120;48.796;9.796;2023-03-03T00:29:31;0.70;99.90
6174;DHT22;3120;48.796;9.796;2023-03-03T00:34:39;0.70;99.90
6174;DHT22;3120;48.796;9.796;2023-03-03T00:37:30;0.70;99.90
6174;DHT22;3120;48.796;9.796;2023-03-03T00:40:21;0.60;99.90
6174;DHT22;3120;48.796;9.796;2023-03-03T00:42:49;0.60;99.90
6174;DHT22;3120;48.796;9.796;2023-03-03T00:45:23;0.60;99.90
6174;DHT22;3120;48.796;9.796;2023-03-03T00:47:51;0.60;99.90
6174;DHT22;3120;48.796;9.796;2023-03-03T00:50:24;0.60;99.90
6174;DHT22;3120;48.796;9.796;2023-03-03T00:52:59;0.60;99.90
6174;DHT22;3120;48.796;9.796;2023-03-03T00:55:26;0.60;99.90
6174;DHT22;3120;48.796;9.796;2023-03-03T00:57:51;0.60;99.90
6174;DHT22;3120;48.796;9.796;2023-03-03T01:00:18;0.50;99.90
6174;DHT22;3120;48.796;9.796;2023-03-03T01:02:43;0.60;99.90
6174;DHT22;3120;48.796;9.796;2023-03-03T01:05:13;0.60;99.90
6174;DHT22;3120;48.796;9.796;2023-03-03T01:07:39;0.60;99.90
6174;DHT22;3120;48.796;9.796;2023-03-03T01:10:05;0.60;99.90
6174;DHT22;3120;48.796;9.796;2023-03-03T01:12:30;0.70;99.90
6174;DHT22;3120;48.796;9.796;2023-03-03T01:14:56;0.70;99.90
6174;DHT22;3120;48.796;9.796;2023-03-03T01:17:22;0.70;99.90
6174;DHT22;3120;48.796;9.796;2023-03-03T01:19:47;0.60;99.90
6174;DHT22;3120;48.796;9.796;2023-03-03T01:22:13;0.60;99.90
6174;DHT22;3120;48.796;9.796;2023-03-03T01:24:38;0.80;99.90
6174;DHT22;3120;48.796;9.796;2023-03-03T01:27:04;0.80;99.90
6174;DHT22;3120;48.796;9.796;2023-03-03T01:29:29;0.80;99.90
6174;DHT22;3120;48.796;9.796;2023-03-03T01:39:26;0.90;99.90
6174;DHT22;3120;48.796;9.796;2023-03-03T01:41:52;1.00;99.90
6174;DHT22;3120;48.796;9.796;2023-03-03T01:44:17;1.00;99.90
6174;DHT22;3120;48.796;9.796;2023-03-03T01:46:54;1.00;99.90
6174;DHT22;3120;48.796;9.796;2023-03-03T01:49:26;1.00;99.90
6174;DHT22;3120;48.796;9.796;2023-03-03T01:51:59;1.00;99.90
6174;DHT22;3120;48.796;9.796;2023-03-03T01:54:45;1.10;99.90
6174;DHT22;3120;48.796;9.796;2023-03-03T01:57:15;1.10;99.90
6174;DHT22;3120;48.796;9.796;2023-03-03T01:59:46;1.10;99.90
6174;DHT22;3120;48.796;9.796;2023-03-03T02:02:14;1.20;99.90
6174;DHT22;3120;48.796;9.796;2023-03-03T02:04:40;1.20;99.90
6174;DHT22;3120;48.796;9.796;2023-03-03T02:07:08;1.20;99.90
6174;DHT22;3120;48.796;9.796;2023-03-03T02:09:52;1.10;99.90
6174;DHT22;3120;48.796;9.796;2023-03-03T02:12:21;1.10;99.90
6174;DHT22;3120;48.796;9.796;2023-03-03T02:14:50;1.20;99.90
6174;DHT22;3120;48.796;9.796;2023-03-03T02:17:15;1.20;99.90
6174;DHT22;3120;48.796;9.796;2023-03-03T02:20:08;1.30;99.90
6174;DHT22;3120;48.796;9.796;2023-03-03T02:22:51;1.30;99.90
6174;DHT22;3120;48.796;9.796;2023-03-03T02:28:10;1.20;99.90
6174;DHT22;3120;48.796;9.796;2023-03-03T02:30:37;1.30;99.90
6174;DHT22;3120;48.796;9.796;2023-03-03T02:33:04;1.30;99.90
6174;DHT22;3120;48.796;9.796;2023-03-03T02:35:35;1.30;99.90
6174;DHT22;3120;48.796;9.796;2023-03-03T02:40:52;1.30;99.90
6174;DHT22;3120;48.796;9.796;2023-03-03T02:43:22;1.20;99.90
6174;DHT22;3120;48.796;9.796;2023-03-03T02:45:49;1.30;99.90
6174;DHT22;3120;48.796;9.796;2023-03-03T02:48:14;1.20;99.90
6174;DHT22;3120;48.796;9.796;2023-03-03T02:50:40;1.30;99.90
6174;DHT22;3120;48.796;9.796;2023-03-03T02:53:05;1.30;99.90
6174;DHT22;3120;48.796;9.796;2023-03-03T02:55:31;1.30;99.90
6174;DHT22;3120;48.796;9.796;2023-03-03T02:57:57;1.30;99.90
6174;DHT22;3120;48.796;9.796;2023-03-03T03:00:22;1.30;99.90
6174;DHT22;3120;48.796;9.796;2023-03-03T03:02:48;1.30;99.90
6174;DHT22;3120;48.796;9.796;2023-03-03T03:05:13;1.40;99.90
6174;DHT22;3120;48.796;9.796;2023-03-03T03:07:39;1.40;99.90
6174;DHT22;3120;48.796;9.796;2023-03-03T03:10:05;1.50;99.90
6174;DHT22;3120;48.796;9.796;2023-03-03T03:12:31;1.50;99.90
6174;DHT22;3120;48.796;9.796;2023-03-03T03:14:57;1.50;99.90
6174;DHT22;3120;48.796;9.796;2023-03-03T03:17:22;1.50;99.90
6174;DHT22;3120;48.796;9.796;2023-03-03T03:19:48;1.50;99.90
6174;DHT22;3120;48.796;9.796;2023-03-03T03:22:13;1.60;99.90
6174;DHT22;3120;48.796;9.796;2023-03-03T03:24:39;1.50;99.90
6174;DHT22;3120;48.796;9.796;2023-03-03T03:27:05;1.50;99.90
6174;DHT22;3120;48.796;9.796;2023-03-03T03:29:30;1.60;99.90
6174;DHT22;3120;48.796;9.796;2023-03-03T03:31:56;1.50;99.90
6174;DHT22;3120;48.796;9.796;2023-03-03T03:34:21;1.60;99.90
6174;DHT22;3120;48.796;9.796;2023-03-03T03:36:47;1.60;99.90
6174;DHT22;3120;48.796;9.796;2023-03-03T03:39:12;1.60;99.90
6174;DHT22;3120;48.796;9.796;2023-03-03T03:41:38;1.60;99.90
6174;DHT22;3120;48.796;9.796;2023-03-03T03:44:04;1.60;99.90
6174;DHT22;3120;48.796;9.796;2023-03-03T03:46:29;1.60;99.90
6174;DHT22;3120;48.796;9.796;2023-03-03T03:48:55;1.50;99.90
6174;DHT22;3120;48.796;9.796;2023-03-03T03:51:20;1.50;99.90
6174;DHT22;3120;48.796;9.796;2023-03-03T03:53:46;1.60;99.90
6174;DHT22;3120;48.796;9.796;2023-03-03T03:56:11;1.60;99.90
6174;DHT22;3120;48.796;9.796;2023-03-03T03:58:39;1.50;99.90
6174;DHT22;3120;48.796;9.796;2023-03-03T04:01:06;1.50;99.90
6174;DHT22;3120;48.796;9.796;2023-03-03T04:03:32;1.50;99.90
6174;DHT22;3120;48.796;9.796;2023-03-03T04:05:57;1.50;99.90
6174;DHT22;3120;48.796;9.796;2023-03-03T04:08:23;1.40;99.90
6174;DHT22;3120;48.796;9.796;2023-03-03T04:10:49;1.40;99.90
6174;DHT22;3120;48.796;9.796;2023-03-03T04:13:14;1.30;99.90
6174;DHT22;3120;48.796;9.796;2023-03-03T04:15:41;1.30;99.90
6174;DHT22;3120;48.796;9.796;2023-03-03T04:18:06;1.40;99.90
6174;DHT22;3120;48.796;9.796;2023-03-03T04:20:32;1.40;99.90
6174;DHT22;3120;48.796;9.796;2023-03-03T04:22:57;1.50;99.90
6174;DHT22;3120;48.796;9.796;2023-03-03T04:25:23;1.50;99.90
6174;DHT22;3120;48.796;9.796;2023-03-03T04:27:49;1.50;99.90
6174;DHT22;3120;48.796;9.796;2023-03-03T04:30:17;1.50;99.90
6174;DHT22;3120;48.796;9.796;2023-03-03T04:32:43;1.50;99.90
6174;DHT22;3120;48.796;9.796;2023-03-03T04:35:09;1.50;99.90
6174;DHT22;3120;48.796;9.796;2023-03-03T04:37:35;1.50;99.90
6174;DHT22;3120;48.796;9.796;2023-03-03T04:40:03;1.50;99.90
6174;DHT22;3120;48.796;9.796;2023-03-03T04:42:29;1.50;99.90
6174;DHT22;3120;48.796;9.796;2023-03-03T04:44:55;1.40;99.90
6174;DHT22;3120;48.796;9.796;2023-03-03T04:47:20;1.50;99.90
6174;DHT22;3120;48.796;9.796;2023-03-03T04:49:46;1.40;99.90
6174;DHT22;3120;48.796;9.796;2023-03-03T04:52:12;1.40;99.90
6174;DHT22;3120;48.796;9.796;2023-03-03T04:54:37;1.40;99.90
6174;DHT22;3120;48.796;9.796;2023-03-03T04:57:03;1.40;99.90
6174;DHT22;3120;48.796;9.796;2023-03-03T04:59:28;1.40;99.90
6174;DHT22;3120;48.796;9.796;2023-03-03T05:01:54;1.40;99.90
6174;DHT22;3120;48.796;9.796;2023-03-03T05:04:19;1.40;99.90
6174;DHT22;3120;48.796;9.796;2023-03-03T05:06:45;1.40;99.90
6174;DHT22;3120;48.796;9.796;2023-03-03T05:09:10;1.40;99.90
6174;DHT22;3120;48.796;9.796;2023-03-03T05:11:36;1.50;99.90
6174;DHT22;3120;48.796;9.796;2023-03-03T05:14:02;1.50;99.90
6174;DHT22;3120;48.796;9.796;2023-03-03T05:16:28;1.50;99.90
6174;DHT22;3120;48.796;9.796;2023-03-03T05:18:54;1.50;99.90
6174;DHT22;3120;48.796;9.796;2023-03-03T05:21:20;1.50;99.90
6174;DHT22;3120;48.796;9.796;2023-03-03T05:23:46;1.50;99.90
6174;DHT22;3120;48.796;9.796;2023-03-03T05:26:11;1.50;99.90
6174;DHT22;3120;48.796;9.796;2023-03-03T05:28:37;1.60;99.90
6174;DHT22;3120;48.796;9.796;2023-03-03T05:31:02;1.50;99.90
6174;DHT22;3120;48.796;9.796;2023-03-03T05:33:28;1.50;99.90
6174;DHT22;3120;48.796;9.796;2023-03-03T05:35:55;1.60;99.90
6174;DHT22;3120;48.796;9.796;2023-03-03T05:38:21;1.60;99.90
6174;DHT22;3120;48.796;9.796;2023-03-03T05:40:47;1.60;99.90
6174;DHT22;3120;48.796;9.796;2023-03-03T05:43:12;1.60;99.90
6174;DHT22;3120;48.796;9.796;2023-03-03T05:45:38;1.50;99.90
6174;DHT22;3120;48.796;9.796;2023-03-03T05:48:03;1.60;99.90
6174;DHT22;3120;48.796;9.796;2023-03-03T05:50:29;1.60;99.90
6174;DHT22;3120;48.796;9.796;2023-03-03T05:52:55;1.60;99.90
6174;DHT22;3120;48.796;9.796;2023-03-03T05:55:21;1.50;99.90
6174;DHT22;3120;48.796;9.796;2023-03-03T05:57:46;1.60;99.90
6174;DHT22;3120;48.796;9.796;2023-03-03T06:00:12;1.60;99.90
6174;DHT22;3120;48.796;9.796;2023-03-03T06:02:39;1.60;99.90
6174;DHT22;3120;48.796;9.796;2023-03-03T06:05:05;1.60;99.90
6174;DHT22;3120;48.796;9.796;2023-03-03T06:07:30;1.60;99.90
6174;DHT22;3120;48.796;9.796;2023-03-03T06:09:56;1.60;99.90
6174;DHT22;3120;48.796;9.796;2023-03-03T06:12:22;1.60;99.90
6174;DHT22;3120;48.796;9.796;2023-03-03T06:14:47;1.60;99.90
6174;DHT22;3120;48.796;9.796;2023-03-03T06:17:13;1.60;99.90
6174;DHT22;3120;48.796;9.796;2023-03-03T06:19:38;1.60;99.90
6174;DHT22;3120;48.796;9.796;2023-03-03T06:22:06;1.60;99.90
6174;DHT22;3120;48.796;9.796;2023-03-03T06:24:32;1.60;99.90
6174;DHT22;3120;48.796;9.796;2023-03-03T06:26:58;1.60;99.90
6174;DHT22;3120;48.796;9.796;2023-03-03T06:29:25;1.60;99.90
6174;DHT22;3120;48.796;9.796;2023-03-03T06:31:50;1.60;99.90
6174;DHT22;3120;48.796;9.796;2023-03-03T06:34:16;1.60;99.90
6174;DHT22;3120;48.796;9.796;2023-03-03T06:36:42;1.60;99.90
6174;DHT22;3120;48.796;9.796;2023-03-03T06:39:07;1.60;99.90
6174;DHT22;3120;48.796;9.796;2023-03-03T06:41:33;2.80;99.90
6174;DHT22;3120;48.796;9.796;2023-03-03T06:43:58;1.70;99.90
6174;DHT22;3120;48.796;9.796;2023-03-03T06:46:25;1.60;99.90
6174;DHT22;3120;48.796;9.796;2023-03-03T06:48:51;1.60;99.90
6174;DHT22;3120;48.796;9.796;2023-03-03T06:51:37;1.60;99.90
6174;DHT22;3120;48.796;9.796;2023-03-03T06:54:12;1.70;99.90
6174;DHT22;3120;48.796;9.796;2023-03-03T06:56:38;1.70;99.90
6174;DHT22;3120;48.796;9.796;2023-03-03T06:59:16;1.80;99.90
6174;DHT22;3120;48.796;9.796;2023-03-03T07:01:43;1.90;99.90
6174;DHT22;3120;48.796;9.796;2023-03-03T07:04:24;1.50;99.90
6174;DHT22;3120;48.796;9.796;2023-03-03T07:06:54;2.10;99.90
6174;DHT22;3120;48.796;9.796;2023-03-03T07:09:23;2.20;99.90
6174;DHT22;3120;48.796;9.796;2023-03-03T07:11:50;2.20;99.90
6174;DHT22;3120;48.796;9.796;2023-03-03T07:14:18;2.30;99.90
6174;DHT22;3120;48.796;9.796;2023-03-03T07:16:44;2.40;99.90
6174;DHT22;3120;48.796;9.796;2023-03-03T07:19:33;2.50;99.90
6174;DHT22;3120;48.796;9.796;2023-03-03T07:22:07;2.50;99.90
6174;DHT22;3120;48.796;9.796;2023-03-03T07:24:36;2.60;99.90
6174;DHT22;3120;48.796;9.796;2023-03-03T07:29:30;2.70;99.90
6174;DHT22;3120;48.796;9.796;2023-03-03T07:31:58;2.70;99.90
6174;DHT22;3120;48.796;9.796;2023-03-03T07:36:57;2.80;99.90
6174;DHT22;3120;48.796;9.796;2023-03-03T07:39:33;2.90;99.90
6174;DHT22;3120;48.796;9.796;2023-03-03T07:44:57;3.00;99.90
6174;DHT22;3120;48.796;9.796;2023-03-03T07:49:53;3.20;99.90
6174;DHT22;3120;48.796;9.796;2023-03-03T07:54:51;3.30;65.30
6174;DHT22;3120;48.796;9.796;2023-03-03T07:57:33;3.00;54.00
6174;DHT22;3120;48.796;9.796;2023-03-03T08:03:19;3.50;30.00
6174;DHT22;3120;48.796;9.796;2023-03-03T08:05:49;3.60;42.40
6174;DHT22;3120;48.796;9.796;2023-03-03T08:08:32;3.80;7.50
6174;DHT22;3120;48.796;9.796;2023-03-03T08:11:02;3.90;1.00
6174;DHT22;3120;48.796;9.796;2023-03-03T08:13:39;4.10;1.00
6174;DHT22;3120;48.796;9.796;2023-03-03T08:18:53;4.20;1.00
6174;DHT22;3120;48.796;9.796;2023-03-03T08:21:20;5.20;1.00
6174;DHT22;3120;48.796;9.796;2023-03-03T08:23:46;4.50;1.00
6174;DHT22;3120;48.796;9.796;2023-03-03T08:26:20;4.60;1.00
6174;DHT22;3120;48.796;9.796;2023-03-03T08:28:46;5.00;99.90
6174;DHT22;3120;48.796;9.796;2023-03-03T08:31:12;5.00;95.40
6174;DHT22;3120;48.796;9.796;2023-03-03T08:33:38;4.90;99.90
6174;DHT22;3120;48.796;9.796;2023-03-03T08:36:05;5.10;99.90
6174;DHT22;3120;48.796;9.796;2023-03-03T08:38:31;4.90;99.90
6174;DHT22;3120;48.796;9.796;2023-03-03T08:40:57;4.80;99.90
6174;DHT22;3120;48.796;9.796;2023-03-03T08:43:23;4.80;1.00
6174;DHT22;3120;48.796;9.796;2023-03-03T08:45:51;4.80;1.00
6174;DHT22;3120;48.796;9.796;2023-03-03T08:48:18;4.90;1.00
6174;DHT22;3120;48.796;9.796;2023-03-03T08:50:44;5.00;99.90
6174;DHT22;3120;48.796;9.796;2023-03-03T08:53:11;5.10;1.00
6174;DHT22;3120;48.796;9.796;2023-03-03T08:55:38;5.20;99.90
6174;DHT22;3120;48.796;9.796;2023-03-03T08:58:03;6.10;99.90
6174;DHT22;3120;48.796;9.796;2023-03-03T09:00:29;5.50;34.40
6174;DHT22;3120;48.796;9.796;2023-03-03T09:02:55;5.60;99.90
6174;DHT22;3120;48.796;9.796;2023-03-03T09:05:21;5.60;99.90
6174;DHT22;3120;48.796;9.796;2023-03-03T09:07:48;5.80;99.90
6174;DHT22;3120;48.796;9.796;2023-03-03T09:10:17;5.90;99.90
6174;DHT22;3120;48.796;9.796;2023-03-03T09:12:45;6.40;88.90
6174;DHT22;3120;48.796;9.796;2023-03-03T09:15:23;6.30;1.00
6174;DHT22;3120;48.796;9.796;2023-03-03T09:17:50;6.20;1.00
6174;DHT22;3120;48.796;9.796;2023-03-03T09:20:35;6.00;1.00
6174;DHT22;3120;48.796;9.796;2023-03-03T09:23:26;6.00;99.90
6174;DHT22;3120;48.796;9.796;2023-03-03T09:25:53;6.10;1.00
6174;DHT22;3120;48.796;9.796;2023-03-03T09:28:28;6.10;59.10
6174;DHT22;3120;48.796;9.796;2023-03-03T09:30:58;6.40;99.90
6174;DHT22;3120;48.796;9.796;2023-03-03T09:33:44;6.50;99.90
6174;DHT22;3120;48.796;9.796;2023-03-03T09:36:36;6.60;99.90
6174;DHT22;3120;48.796;9.796;2023-03-03T09:39:16;6.50;1.00
6174;DHT22;3120;48.796;9.796;2023-03-03T09:47:11;6.70;66.50
6174;DHT22;3120;48.796;9.796;2023-03-03T09:52:47;6.90;30.90
6174;DHT22;3120;48.796;9.796;2023-03-03T10:13:00;7.60;17.60
6174;DHT22;3120;48.796;9.796;2023-03-03T10:15:47;7.90;1.00
6174;DHT22;3120;48.796;9.796;2023-03-03T10:18:46;8.10;99.90
6174;DHT22;3120;48.796;9.796;2023-03-03T10:21:35;8.10;99.90
6174;DHT22;3120;48.796;9.796;2023-03-03T10:24:29;8.10;99.90
6174;DHT22;3120;48.796;9.796;2023-03-03T10:27:14;7.90;1.00
6174;DHT22;3120;48.796;9.796;2023-03-03T10:30:12;7.80;1.00
6174;DHT22;3120;48.796;9.796;2023-03-03T10:35:45;8.20;1.00
6174;DHT22;3120;48.796;9.796;2023-03-03T10:38:24;8.40;99.90
6174;DHT22;3120;48.796;9.796;2023-03-03T10:44:10;8.50;1.00
6174;DHT22;3120;48.796;9.796;2023-03-03T10:49:55;8.50;99.90
6174;DHT22;3120;48.796;9.796;2023-03-03T10:52:30;8.60;99.90
6174;DHT22;3120;48.796;9.796;2023-03-03T10:58:03;8.60;99.90
6174;DHT22;3120;48.796;9.796;2023-03-03T11:00:40;8.40;1.00
6174;DHT22;3120;48.796;9.796;2023-03-03T11:06:23;8.60;1.00
6174;DHT22;3120;48.796;9.796;2023-03-03T11:16:41;8.70;99.90
6174;DHT22;3120;48.796;9.796;2023-03-03T11:22:16;8.90;99.90
6174;DHT22;3120;48.796;9.796;2023-03-03T11:27:43;8.90;99.90
6174;DHT22;3120;48.796;9.796;2023-03-03T11:30:39;9.10;99.90
6174;DHT22;3120;48.796;9.796;2023-03-03T11:36:44;8.90;99.90
6174;DHT22;3120;48.796;9.796;2023-03-03T11:39:02;9.10;99.90
6174;DHT22;3120;48.796;9.796;2023-03-03T11:44:36;9.10;99.90
6174;DHT22;3120;48.796;9.796;2023-03-03T11:47:48;8.90;99.90
6174;DHT22;3120;48.796;9.796;2023-03-03T11:50:13;9.10;99.90
6174;DHT22;3120;48.796;9.796;2023-03-03T11:53:15;8.90;99.90
6174;DHT22;3120;48.796;9.796;2023-03-03T11:55:48;9.20;99.90
6174;DHT22;3120;48.796;9.796;2023-03-03T11:58:31;9.10;99.90
6174;DHT22;3120;48.796;9.796;2023-03-03T12:06:46;9.20;99.90
6174;DHT22;3120;48.796;9.796;2023-03-03T12:11:47;9.10;99.90
6174;DHT22;3120;48.796;9.796;2023-03-03T12:17:00;9.10;99.90
6174;DHT22;3120;48.796;9.796;2023-03-03T12:19:32;8.80;99.90
6174;DHT22;3120;48.796;9.796;2023-03-03T12:22:27;8.80;99.90
6174;DHT22;3120;48.796;9.796;2023-03-03T12:35:38;8.70;99.90
6174;DHT22;3120;48.796;9.796;2023-03-03T12:47:39;9.00;99.90
6174;DHT22;3120;48.796;9.796;2023-03-03T12:50:44;9.20;99.90
6174;DHT22;3120;48.796;9.796;2023-03-03T12:56:03;9.40;99.90
6174;DHT22;3120;48.796;9.796;2023-03-03T13:01:13;9.30;99.90
6174;DHT22;3120;48.796;9.796;2023-03-03T13:03:56;9.00;99.90
6174;DHT22;3120;48.796;9.796;2023-03-03T13:10:11;9.30;99.90
6174;DHT22;3120;48.796;9.796;2023-03-03T13:12:57;9.30;99.90
6174;DHT22;3120;48.796;9.796;2023-03-03T13:15:30;9.20;99.90
6174;DHT22;3120;48.796;9.796;2023-03-03T13:21:00;9.10;99.90
6174;DHT22;3120;48.796;9.796;2023-03-03T13:26:25;9.20;99.90
6174;DHT22;3120;48.796;9.796;2023-03-03T13:29:19;9.30;99.90
6174;DHT22;3120;48.796;9.796;2023-03-03T13:31:55;9.30;99.90
6174;DHT22;3120;48.796;9.796;2023-03-03T13:39:51;9.40;99.90
6174;DHT22;3120;48.796;9.796;2023-03-03T13:42:23;9.40;99.90
6174;DHT22;3120;48.796;9.796;2023-03-03T13:48:09;9.50;99.90
6174;DHT22;3120;48.796;9.796;2023-03-03T13:50:57;9.30;99.90
6174;DHT22;3120;48.796;9.796;2023-03-03T13:59:38;9.50;99.90
6174;DHT22;3120;48.796;9.796;2023-03-03T14:08:02;9.60;99.90
6174;DHT22;3120;48.796;9.796;2023-03-03T14:10:46;9.60;99.90
6174;DHT22;3120;48.796;9.796;2023-03-03T14:13:24;9.50;99.90
6174;DHT22;3120;48.796;9.796;2023-03-03T14:21:02;10.50;99.90
6174;DHT22;3120;48.796;9.796;2023-03-03T14:31:43;9.80;99.90
6174;DHT22;3120;48.796;9.796;2023-03-03T14:36:47;9.60;99.90
6174;DHT22;3120;48.796;9.796;2023-03-03T14:44:49;9.70;99.90
6174;DHT22;3120;48.796;9.796;2023-03-03T14:47:30;9.70;99.90
6174;DHT22;3120;48.796;9.796;2023-03-03T14:49:57;9.60;99.90
6174;DHT22;3120;48.796;9.796;2023-03-03T14:52:29;9.60;99.90
6174;DHT22;3120;48.796;9.796;2023-03-03T14:54:59;9.60;99.90
6174;DHT22;3120;48.796;9.796;2023-03-03T15:08:11;9.60;99.90
6174;DHT22;3120;48.796;9.796;2023-03-03T15:10:41;9.50;99.90
6174;DHT22;3120;48.796;9.796;2023-03-03T15:13:33;11.10;99.90
6174;DHT22;3120;48.796;9.796;2023-03-03T15:16:00;9.50;99.90
6174;DHT22;3120;48.796;9.796;2023-03-03T15:18:29;9.50;99.90
6174;DHT22;3120;48.796;9.796;2023-03-03T15:21:07;9.50;99.90
6174;DHT22;3120;48.796;9.796;2023-03-03T15:29:40;9.50;99.90
6174;DHT22;3120;48.796;9.796;2023-03-03T15:32:17;9.40;99.90
6174;DHT22;3120;48.796;9.796;2023-03-03T15:35:23;9.40;99.90
6174;DHT22;3120;48.796;9.796;2023-03-03T15:43:31;9.40;99.90
6174;DHT22;3120;48.796;9.796;2023-03-03T15:49:08;9.30;99.90
6174;DHT22;3120;48.796;9.796;2023-03-03T16:00:17;9.20;99.90
6174;DHT22;3120;48.796;9.796;2023-03-03T16:03:39;9.20;99.90
6174;DHT22;3120;48.796;9.796;2023-03-03T16:06:02;9.10;99.90
6174;DHT22;3120;48.796;9.796;2023-03-03T16:11:17;9.10;99.90
6174;DHT22;3120;48.796;9.796;2023-03-03T16:14:09;9.10;99.90
6174;DHT22;3120;48.796;9.796;2023-03-03T16:17:00;9.00;99.90
6174;DHT22;3120;48.796;9.796;2023-03-03T16:19:44;8.80;99.90
6174;DHT22;3120;48.796;9.796;2023-03-03T16:32:49;8.50;99.90
6174;DHT22;3120;48.796;9.796;2023-03-03T16:35:24;8.40;99.90
6174;DHT22;3120;48.796;9.796;2023-03-03T16:40:37;8.30;1.00
6174;DHT22;3120;48.796;9.796;2023-03-03T16:43:15;8.20;1.00
6174;DHT22;3120;48.796;9.796;2023-03-03T16:45:43;9.80;1.00
6174;DHT22;3120;48.796;9.796;2023-03-03T16:48:28;8.10;1.00
6174;DHT22;3120;48.796;9.796;2023-03-03T16:51:03;8.00;1.00
6174;DHT22;3120;48.796;9.796;2023-03-03T16:59:11;7.80;99.90
6174;DHT22;3120;48.796;9.796;2023-03-03T17:04:14;7.50;99.90
6174;DHT22;3120;48.796;9.796;2023-03-03T17:06:53;7.50;99.90
6174;DHT22;3120;48.796;9.796;2023-03-03T17:12:36;7.30;1.00
6174;DHT22;3120;48.796;9.796;2023-03-03T17:23:28;6.90;99.90
6174;DHT22;3120;48.796;9.796;2023-03-03T17:29:21;6.60;27.40
6174;DHT22;3120;48.796;9.796;2023-03-03T17:45:09;6.10;1.00
6174;DHT22;3120;48.796;9.796;2023-03-03T17:47:52;6.00;1.00
6174;DHT22;3120;48.796;9.796;2023-03-03T17:56:19;6.00;11.50
6174;DHT22;3120;48.796;9.796;2023-03-03T18:04:25;5.70;1.00
6174;DHT22;3120;48.796;9.796;2023-03-03T18:09:57;5.40;1.00
6174;DHT22;3120;48.796;9.796;2023-03-03T18:15:57;5.20;99.90
6174;DHT22;3120;48.796;9.796;2023-03-03T18:23:45;4.80;99.90
6174;DHT22;3120;48.796;9.796;2023-03-03T18:26:32;4.60;1.00
6174;DHT22;3120;48.796;9.796;2023-03-03T18:29:18;4.60;1.00
6174;DHT22;3120;48.796;9.796;2023-03-03T18:34:37;4.50;1.00
6174;DHT22;3120;48.796;9.796;2023-03-03T18:37:36;5.40;1.00
6174;DHT22;3120;48.796;9.796;2023-03-03T18:45:54;4.10;1.00
6174;DHT22;3120;48.796;9.796;2023-03-03T18:48:07;4.10;1.00
6174;DHT22;3120;48.796;9.796;2023-03-03T18:50:41;4.10;1.00
6174;DHT22;3120;48.796;9.796;2023-03-03T18:56:42;4.00;1.00
6174;DHT22;3120;48.796;9.796;2023-03-03T18:59:09;4.00;1.00
6174;DHT22;3120;48.796;9.796;2023-03-03T19:01:43;3.90;1.00
6174;DHT22;3120;48.796;9.796;2023-03-03T19:04:18;3.80;1.00
6174;DHT22;3120;48.796;9.796;2023-03-03T19:09:18;3.70;1.00
6174;DHT22;3120;48.796;9.796;2023-03-03T19:11:54;3.60;1.00
6174;DHT22;3120;48.796;9.796;2023-03-03T19:14:50;3.60;1.00
6174;DHT22;3120;48.796;9.796;2023-03-03T19:22:42;3.30;41.80
6174;DHT22;3120;48.796;9.796;2023-03-03T19:25:25;3.30;42.00
6174;DHT22;3120;48.796;9.796;2023-03-03T19:30:44;3.30;58.70
6174;DHT22;3120;48.796;9.796;2023-03-03T19:46:59;2.90;87.50
6174;DHT22;3120;48.796;9.796;2023-03-03T19:55:10;2.70;99.90
6174;DHT22;3120;48.796;9.796;2023-03-03T20:00:37;2.60;99.90
6174;DHT22;3120;48.796;9.796;2023-03-03T20:08:41;2.50;99.90
6174;DHT22;3120;48.796;9.796;2023-03-03T20:14:02;2.50;99.90
6174;DHT22;3120;48.796;9.796;2023-03-03T20:16:38;2.50;99.90
6174;DHT22;3120;48.796;9.796;2023-03-03T20:27:05;2.30;99.90
6174;DHT22;3120;48.796;9.796;2023-03-03T20:29:43;2.20;99.90
6174;DHT22;3120;48.796;9.796;2023-03-03T20:49:49;1.90;99.90
6174;DHT22;3120;48.796;9.796;2023-03-03T20:52:39;1.90;99.90
6174;DHT22;3120;48.796;9.796;2023-03-03T20:55:22;1.90;99.90
6174;DHT22;3120;48.796;9.796;2023-03-03T21:06:13;1.80;99.90
6174;DHT22;3120;48.796;9.796;2023-03-03T21:08:48;1.70;99.90
6174;DHT22;3120;48.796;9.796;2023-03-03T21:11:19;1.70;99.90
6174;DHT22;3120;48.796;9.796;2023-03-03T21:13:48;1.70;99.90
6174;DHT22;3120;48.796;9.796;2023-03-03T21:35:13;1.40;99.90
6174;DHT22;3120;48.796;9.796;2023-03-03T21:37:53;1.40;99.90
6174;DHT22;3120;48.796;9.796;2023-03-03T21:40:26;1.30;99.90
6174;DHT22;3120;48.796;9.796;2023-03-03T21:42:53;1.20;99.90
6174;DHT22;3120;48.796;9.796;2023-03-03T21:45:19;1.20;99.90
6174;DHT22;3120;48.796;9.796;2023-03-03T21:47:46;1.10;99.90
6174;DHT22;3120;48.796;9.796;2023-03-03T21:50:12;1.10;99.90
6174;DHT22;3120;48.796;9.796;2023-03-03T21:52:38;1.10;99.90
6174;DHT22;3120;48.796;9.796;2023-03-03T21:55:05;1.10;99.90
6174;DHT22;3120;48.796;9.796;2023-03-03T21:57:30;1.10;99.90
6174;DHT22;3120;48.796;9.796;2023-03-03T21:59:56;1.10;99.90
6174;DHT22;3120;48.796;9.796;2023-03-03T22:02:22;1.00;99.90
6174;DHT22;3120;48.796;9.796;2023-03-03T22:04:47;0.90;99.90
6174;DHT22;3120;48.796;9.796;2023-03-03T22:07:13;0.90;99.90
6174;DHT22;3120;48.796;9.796;2023-03-03T22:09:39;0.80;99.90
6174;DHT22;3120;48.796;9.796;2023-03-03T22:12:05;0.80;99.90
6174;DHT22;3120;48.796;9.796;2023-03-03T22:14:31;0.80;99.90
6174;DHT22;3120;48.796;9.796;2023-03-03T22:16:57;0.80;99.90
6174;DHT22;3120;48.796;9.796;2023-03-03T22:19:22;0.70;99.90
6174;DHT22;3120;48.796;9.796;2023-03-03T22:21:49;0.70;99.90
6174;DHT22;3120;48.796;9.796;2023-03-03T22:24:15;1.00;99.90
6174;DHT22;3120;48.796;9.796;2023-03-03T22:26:41;0.80;99.90
6174;DHT22;3120;48.796;9.796;2023-03-03T22:29:07;0.80;99.90
6174;DHT22;3120;48.796;9.796;2023-03-03T22:31:35;0.70;99.90
6174;DHT22;3120;48.796;9.796;2023-03-03T22:34:01;0.70;99.90
6174;DHT22;3120;48.796;9.796;2023-03-03T22:36:27;0.60;99.90
6174;DHT22;3120;48.796;9.796;2023-03-03T22:38:52;0.60;99.90
6174;DHT22;3120;48.796;9.796;2023-03-03T22:41:18;0.60;99.90
6174;DHT22;3120;48.796;9.796;2023-03-03T22:43:44;0.50;99.90
6174;DHT22;3120;48.796;9.796;2023-03-03T22:46:10;0.40;99.90
6174;DHT22;3120;48.796;9.796;2023-03-03T22:48:36;0.40;99.90
6174;DHT22;3120;48.796;9.796;2023-03-03T22:51:02;0.50;99.90
6174;DHT22;3120;48.796;9.796;2023-03-03T22:53:28;0.40;99.90
6174;DHT22;3120;48.796;9.796;2023-03-03T22:55:54;0.30;99.90
6174;DHT22;3120;48.796;9.796;2023-03-03T22:58:20;0.30;99.90
6174;DHT22;3120;48.796;9.796;2023-03-03T23:00:49;0.30;99.90
6174;DHT22;3120;48.796;9.796;2023-03-03T23:03:14;0.30;99.90
6174;DHT22;3120;48.796;9.796;2023-03-03T23:05:40;0.20;99.90
6174;DHT22;3120;48.796;9.796;2023-03-03T23:08:11;0.10;99.90
6174;DHT22;3120;48.796;9.796;2023-03-03T23:10:37;0.20;99.90
6174;DHT22;3120;48.796;9.796;2023-03-03T23:13:03;0.20;99.90
6174;DHT22;3120;48.796;9.796;2023-03-03T23:15:29;0.20;99.90
6174;DHT22;3120;48.796;9.796;2023-03-03T23:17:54;0.20;99.90
6174;DHT22;3120;48.796;9.796;2023-03-03T23:20:49;0.20;99.90
6174;DHT22;3120;48.796;9.796;2023-03-03T23:23:15;0.10;99.90
6174;DHT22;3120;48.796;9.796;2023-03-03T23:25:40;0.10;99.90